createdAt,value
2023-07-02T00:08:55.082Z,90
2023-07-02T00:18:55.272Z,89
2023-07-02T00:28:55.481Z,89
2023-07-02T00:38:55.679Z,89
2023-07-02T00:48:55.870Z,89
2023-07-02T00:58:56.086Z,88
2023-07-02T01:08:56.277Z,88
2023-07-02T01:18:56.475Z,88
2023-07-02T01:28:56.670Z,88
2023-07-02T01:38:56.887Z,88
2023-07-02T01:48:57.065Z,88
2023-07-02T01:58:57.274Z,87
2023-07-02T02:08:57.462Z,87
2023-07-02T02:18:57.672Z,86
2023-07-02T02:28:57.856Z,86
2023-07-02T02:38:58.066Z,86
2023-07-02T02:48:58.263Z,85
2023-07-02T02:58:58.450Z,85
2023-07-02T03:08:58.653Z,84
2023-07-02T03:18:58.843Z,83
2023-07-02T03:28:59.057Z,82
2023-07-02T03:48:59.455Z,82
2023-07-02T03:58:59.637Z,82
2023-07-02T04:08:59.837Z,81
2023-07-02T04:19:00.042Z,80
2023-07-02T04:29:00.268Z,80
2023-07-02T04:39:00.426Z,80
2023-07-02T04:49:00.691Z,79
2023-07-02T04:59:00.849Z,80
2023-07-02T05:09:01.050Z,80
2023-07-02T05:19:01.222Z,82
2023-07-02T05:29:01.411Z,83
2023-07-02T05:39:01.645Z,82
2023-07-02T05:49:01.863Z,81
2023-07-02T05:59:02.020Z,77
2023-07-02T06:09:02.201Z,78
2023-07-02T06:19:02.518Z,75
2023-07-02T06:29:02.604Z,73
2023-07-02T08:19:04.762Z,64
2023-07-02T08:29:05.010Z,63
2023-07-02T08:39:05.158Z,61
2023-07-02T08:59:05.550Z,57
2023-07-02T09:09:05.762Z,59
2023-07-02T09:19:05.961Z,58
2023-07-02T09:39:06.342Z,56
2023-07-02T10:09:06.925Z,56
2023-07-02T10:29:07.345Z,54
2023-07-02T10:39:07.550Z,53
2023-07-02T10:49:07.743Z,52
2023-07-02T10:59:07.899Z,51
2023-07-02T11:19:08.295Z,51
2023-07-02T11:29:08.497Z,52
2023-07-02T11:39:08.688Z,51
2023-07-02T11:49:08.907Z,52
2023-07-02T11:59:09.086Z,52
2023-07-02T12:09:09.334Z,52
2023-07-02T12:19:09.493Z,52
2023-07-02T12:29:09.679Z,53
2023-07-02T12:39:09.941Z,55
2023-07-02T12:49:10.086Z,53
2023-07-02T12:59:10.267Z,51
2023-07-02T13:09:10.462Z,53
2023-07-02T13:29:10.850Z,53
2023-07-02T13:39:11.053Z,55
2023-07-02T13:49:11.238Z,55
2023-07-02T13:59:11.428Z,55
2023-07-02T14:09:11.644Z,53
2023-07-02T14:19:11.822Z,54
2023-07-02T14:29:12.052Z,54
2023-07-02T14:39:12.231Z,52
2023-07-02T14:49:12.444Z,53
2023-07-02T14:59:12.621Z,53
2023-07-02T15:09:12.813Z,54
2023-07-02T15:19:13.009Z,55
2023-07-02T15:29:13.212Z,52
2023-07-02T15:39:13.389Z,52
2023-07-02T15:49:13.639Z,52
2023-07-02T15:59:13.812Z,52
2023-07-02T16:09:14.018Z,52
2023-07-02T16:19:14.222Z,51
2023-07-02T16:29:14.372Z,51
2023-07-02T16:39:14.614Z,52
2023-07-02T16:49:14.777Z,52
2023-07-02T16:59:14.963Z,53
2023-07-02T17:19:15.370Z,54
2023-07-02T17:29:15.566Z,55
2023-07-02T17:39:15.745Z,55
2023-07-02T17:49:15.953Z,55
2023-07-02T17:59:16.139Z,55
2023-07-02T18:09:16.347Z,56
2023-07-02T18:19:16.545Z,56
2023-07-02T18:29:16.747Z,57
2023-07-02T18:39:16.938Z,57
2023-07-02T18:49:17.141Z,57
2023-07-02T18:59:17.380Z,57
2023-07-02T19:09:17.511Z,58
2023-07-02T19:19:17.741Z,58
2023-07-02T19:29:17.918Z,59
2023-07-02T19:39:18.106Z,59
2023-07-02T19:49:18.311Z,59
2023-07-02T19:59:18.596Z,59
2023-07-02T20:09:18.710Z,60
2023-07-02T20:19:18.904Z,60
2023-07-02T20:29:19.097Z,60
2023-07-02T20:39:19.285Z,61
2023-07-02T20:59:19.691Z,62
2023-07-02T22:39:21.649Z,68
2023-07-02T22:59:22.042Z,70
2023-07-02T23:19:22.478Z,72
2023-07-02T23:59:23.249Z,71
